Hartville, WY (82215)

10:28 PM MDT on July 29, 2015 (GMT -0600)
lingle | | Change Station
CLOSE
Current Station
Personal Weather Station
Location: Lingle, WY
Elevation: 4180 ft
Nearby Weather Stations

Elev 4180 ft 42.14 °N, 104.35 °W | Updated 6 minutes ago

Clear
Clear
71.8 °F
Feels Like 77 °F
N
1.7
Wind Variable Wind from NE

Today
High -- | Low -- °F
--% Chance of Precip.
Yesterday
High -- | Low -- °F
Precip. -- in
5:48 AM 8:21 PM
Waxing Gibbous, 98% visible
Pressure 30.09 in
Visibility 10.0 miles
Clouds Few 9000 ft
Scattered Clouds 11000 ft
Heat Index 77 °F
Dew Point 46 °F
Humidity 40%
Rainfall 0.00 in
Snow Depth Not available.
UV 0 out of 12
Pollen 6.00 out of 12
Air Quality Not available.
Flu Activity Not available.
METAR KTOR 300353Z AUTO 07007KT 10SM FEW090 SCT110 22/09 A3022 RMK AO2 SLP189 T02170094

More Conditions Fewer Conditions

Pressure 30.09 in
Visibility 10.0 miles
Clouds Few 9000 ft
Scattered Clouds 11000 ft
Heat Index 77 °F
Dew Point 46 °F
Humidity 40%
Rainfall 0.00 in
Snow Depth Not available.
UV 0 out of 12
Pollen 6.00 out of 12
Air Quality Not available.
Flu Activity Not available.
METAR KTOR 300353Z AUTO 07007KT 10SM FEW090 SCT110 22/09 A3022 RMK AO2 SLP189 T02170094

More Conditions Fewer Conditions

10-Day Weather Forecast

×

Almanac

Astronomy

Jul. 29, 2015 Rise Set
Actual Time
Civil Twilight
Nautical Twilight
Astronomical Twilight
Moon
Length of Visible Light
Length of Day
Tomorrow will be .
, % of the Moon is Illuminated

Today's Extremes

State Highs State Lows

Community

WunderPhotos

Upload Photos

1,842,303 photos uploaded!

WunderBlogs® & News

Nearby

Air Quality

  Air Quality AQ Index Pollutant
Not available.

Snow Depth

Station Depth Elevation

Earthquake Activity

City Distance Mag. Time & Date
Minimum magnitude displayed is 2.5.

Coastal Water Temperatures

Place Temperature

Stations

Nearby Weather Stations

Station Location Temp. Windchill Dew Point Humidity Wind Precip. Elev Updated Type